sensor_id;sensor_type;location;lat;lon;timestamp;temperature;humidity
1415;DHT22;702;49.466;11.086;2023-09-19T00:00:28;16.80;95.30
1415;DHT22;702;49.466;11.086;2023-09-19T00:02:55;16.70;95.30
1415;DHT22;702;49.466;11.086;2023-09-19T00:05:26;16.70;95.40
1415;DHT22;702;49.466;11.086;2023-09-19T00:07:55;16.70;95.60
1415;DHT22;702;49.466;11.086;2023-09-19T00:10:25;16.60;95.60
1415;DHT22;702;49.466;11.086;2023-09-19T00:12:55;16.50;96.40
1415;DHT22;702;49.466;11.086;2023-09-19T00:15:45;16.40;96.80
1415;DHT22;702;49.466;11.086;2023-09-19T00:18:15;16.30;97.30
1415;DHT22;702;49.466;11.086;2023-09-19T00:20:43;16.30;97.80
1415;DHT22;702;49.466;11.086;2023-09-19T00:23:14;16.30;98.00
1415;DHT22;702;49.466;11.086;2023-09-19T00:25:43;16.20;98.20
1415;DHT22;702;49.466;11.086;2023-09-19T00:28:15;16.10;99.40
1415;DHT22;702;49.466;11.086;2023-09-19T00:30:43;15.90;99.60
1415;DHT22;702;49.466;11.086;2023-09-19T00:33:11;15.90;99.90
1415;DHT22;702;49.466;11.086;2023-09-19T00:35:48;15.80;99.90
1415;DHT22;702;49.466;11.086;2023-09-19T00:38:15;15.80;99.90
1415;DHT22;702;49.466;11.086;2023-09-19T00:40:45;15.80;99.90
1415;DHT22;702;49.466;11.086;2023-09-19T00:43:15;15.80;99.90
1415;DHT22;702;49.466;11.086;2023-09-19T00:45:46;15.80;99.90
1415;DHT22;702;49.466;11.086;2023-09-19T00:48:14;15.80;99.90
1415;DHT22;702;49.466;11.086;2023-09-19T00:50:44;15.80;99.90
1415;DHT22;702;49.466;11.086;2023-09-19T00:53:15;15.80;99.90
1415;DHT22;702;49.466;11.086;2023-09-19T00:55:45;16.00;99.90
1415;DHT22;702;49.466;11.086;2023-09-19T00:58:16;16.10;99.90
1415;DHT22;702;49.466;11.086;2023-09-19T01:00:44;16.10;99.10
1415;DHT22;702;49.466;11.086;2023-09-19T01:03:11;16.20;98.20
1415;DHT22;702;49.466;11.086;2023-09-19T01:05:40;16.20;98.40
1415;DHT22;702;49.466;11.086;2023-09-19T01:08:08;16.20;98.00
1415;DHT22;702;49.466;11.086;2023-09-19T01:10:40;16.00;99.00
1415;DHT22;702;49.466;11.086;2023-09-19T01:13:22;16.00;99.50
1415;DHT22;702;49.466;11.086;2023-09-19T01:16:08;15.90;99.90
1415;DHT22;702;49.466;11.086;2023-09-19T01:18:48;15.90;99.90
1415;DHT22;702;49.466;11.086;2023-09-19T01:21:26;15.70;99.90
1415;DHT22;702;49.466;11.086;2023-09-19T01:24:16;15.70;99.90
1415;DHT22;702;49.466;11.086;2023-09-19T01:27:17;15.80;99.90
1415;DHT22;702;49.466;11.086;2023-09-19T01:30:06;15.80;99.90
1415;DHT22;702;49.466;11.086;2023-09-19T01:32:36;15.80;99.90
1415;DHT22;702;49.466;11.086;2023-09-19T01:35:06;15.80;99.90
1415;DHT22;702;49.466;11.086;2023-09-19T01:37:38;15.80;99.90
1415;DHT22;702;49.466;11.086;2023-09-19T01:40:11;15.70;99.90
1415;DHT22;702;49.466;11.086;2023-09-19T01:42:45;15.90;99.90
1415;DHT22;702;49.466;11.086;2023-09-19T01:45:25;16.00;99.50
1415;DHT22;702;49.466;11.086;2023-09-19T01:48:01;16.10;98.60
1415;DHT22;702;49.466;11.086;2023-09-19T01:50:40;16.10;98.20
1415;DHT22;702;49.466;11.086;2023-09-19T01:53:15;16.10;98.30
1415;DHT22;702;49.466;11.086;2023-09-19T01:55:48;16.20;98.30
1415;DHT22;702;49.466;11.086;2023-09-19T01:58:21;16.30;96.70
1415;DHT22;702;49.466;11.086;2023-09-19T02:00:55;16.50;94.80
1415;DHT22;702;49.466;11.086;2023-09-19T02:03:24;16.50;94.60
1415;DHT22;702;49.466;11.086;2023-09-19T02:05:53;16.40;94.30
1415;DHT22;702;49.466;11.086;2023-09-19T02:08:22;16.40;94.20
1415;DHT22;702;49.466;11.086;2023-09-19T02:10:51;16.60;93.40
1415;DHT22;702;49.466;11.086;2023-09-19T02:13:19;16.50;93.20
1415;DHT22;702;49.466;11.086;2023-09-19T02:15:47;16.60;93.00
1415;DHT22;702;49.466;11.086;2023-09-19T02:18:16;16.60;93.00
1415;DHT22;702;49.466;11.086;2023-09-19T02:20:45;16.60;92.70
1415;DHT22;702;49.466;11.086;2023-09-19T02:23:15;16.60;92.90
1415;DHT22;702;49.466;11.086;2023-09-19T02:25:42;16.60;92.70
1415;DHT22;702;49.466;11.086;2023-09-19T02:28:11;16.70;92.40
1415;DHT22;702;49.466;11.086;2023-09-19T02:30:38;16.80;92.20
1415;DHT22;702;49.466;11.086;2023-09-19T02:33:05;16.80;92.10
1415;DHT22;702;49.466;11.086;2023-09-19T02:35:36;16.90;91.80
1415;DHT22;702;49.466;11.086;2023-09-19T02:38:03;16.90;91.70
1415;DHT22;702;49.466;11.086;2023-09-19T02:40:32;16.90;91.50
1415;DHT22;702;49.466;11.086;2023-09-19T02:43:01;17.00;91.50
1415;DHT22;702;49.466;11.086;2023-09-19T02:45:33;16.90;91.70
1415;DHT22;702;49.466;11.086;2023-09-19T02:48:01;16.90;91.50
1415;DHT22;702;49.466;11.086;2023-09-19T02:50:30;16.90;91.60
1415;DHT22;702;49.466;11.086;2023-09-19T02:53:00;16.90;91.40
1415;DHT22;702;49.466;11.086;2023-09-19T02:55:30;16.90;91.30
1415;DHT22;702;49.466;11.086;2023-09-19T02:57:58;17.00;91.20
1415;DHT22;702;49.466;11.086;2023-09-19T03:00:26;16.90;91.20
1415;DHT22;702;49.466;11.086;2023-09-19T03:02:55;17.00;91.20
1415;DHT22;702;49.466;11.086;2023-09-19T03:05:23;17.00;91.20
1415;DHT22;702;49.466;11.086;2023-09-19T03:07:51;16.90;91.20
1415;DHT22;702;49.466;11.086;2023-09-19T03:10:21;17.00;91.20
1415;DHT22;702;49.466;11.086;2023-09-19T03:12:49;16.90;91.30
1415;DHT22;702;49.466;11.086;2023-09-19T03:15:17;16.80;91.40
1415;DHT22;702;49.466;11.086;2023-09-19T03:17:46;16.80;91.50
1415;DHT22;702;49.466;11.086;2023-09-19T03:20:14;16.70;91.60
1415;DHT22;702;49.466;11.086;2023-09-19T03:22:43;16.60;91.80
1415;DHT22;702;49.466;11.086;2023-09-19T03:25:11;16.60;92.00
1415;DHT22;702;49.466;11.086;2023-09-19T03:27:40;16.50;92.00
1415;DHT22;702;49.466;11.086;2023-09-19T03:30:09;16.50;92.20
1415;DHT22;702;49.466;11.086;2023-09-19T03:32:44;16.50;92.30
1415;DHT22;702;49.466;11.086;2023-09-19T03:35:13;16.50;92.20
1415;DHT22;702;49.466;11.086;2023-09-19T03:37:41;16.40;92.50
1415;DHT22;702;49.466;11.086;2023-09-19T03:40:11;16.30;92.70
1415;DHT22;702;49.466;11.086;2023-09-19T03:42:40;16.20;92.90
1415;DHT22;702;49.466;11.086;2023-09-19T03:45:08;16.10;93.10
1415;DHT22;702;49.466;11.086;2023-09-19T03:47:38;16.10;93.80
1415;DHT22;702;49.466;11.086;2023-09-19T03:50:08;16.10;93.80
1415;DHT22;702;49.466;11.086;2023-09-19T03:52:36;16.20;93.50
1415;DHT22;702;49.466;11.086;2023-09-19T03:55:05;16.20;93.50
1415;DHT22;702;49.466;11.086;2023-09-19T03:57:32;16.20;93.60
1415;DHT22;702;49.466;11.086;2023-09-19T04:00:05;16.00;93.70
1415;DHT22;702;49.466;11.086;2023-09-19T04:02:37;16.00;94.20
1415;DHT22;702;49.466;11.086;2023-09-19T04:05:06;15.90;94.50
1415;DHT22;702;49.466;11.086;2023-09-19T04:07:35;15.90;94.60
1415;DHT22;702;49.466;11.086;2023-09-19T04:10:03;15.90;94.90
1415;DHT22;702;49.466;11.086;2023-09-19T04:12:31;15.90;95.00
1415;DHT22;702;49.466;11.086;2023-09-19T04:15:00;15.80;94.90
1415;DHT22;702;49.466;11.086;2023-09-19T04:17:29;15.80;95.20
1415;DHT22;702;49.466;11.086;2023-09-19T04:19:59;15.70;95.50
1415;DHT22;702;49.466;11.086;2023-09-19T04:22:27;15.70;95.80
1415;DHT22;702;49.466;11.086;2023-09-19T04:24:55;15.70;95.60
1415;DHT22;702;49.466;11.086;2023-09-19T04:27:22;15.70;95.90
1415;DHT22;702;49.466;11.086;2023-09-19T04:29:52;15.70;96.30
1415;DHT22;702;49.466;11.086;2023-09-19T04:32:24;15.80;95.30
1415;DHT22;702;49.466;11.086;2023-09-19T04:35:05;15.90;95.10
1415;DHT22;702;49.466;11.086;2023-09-19T04:37:34;16.00;95.10
1415;DHT22;702;49.466;11.086;2023-09-19T04:40:04;16.00;95.00
1415;DHT22;702;49.466;11.086;2023-09-19T04:42:40;16.00;94.90
1415;DHT22;702;49.466;11.086;2023-09-19T04:45:08;16.10;95.10
1415;DHT22;702;49.466;11.086;2023-09-19T04:47:38;16.10;94.80
1415;DHT22;702;49.466;11.086;2023-09-19T04:50:08;16.20;94.60
1415;DHT22;702;49.466;11.086;2023-09-19T04:52:40;16.30;93.90
1415;DHT22;702;49.466;11.086;2023-09-19T04:55:11;16.40;93.70
1415;DHT22;702;49.466;11.086;2023-09-19T04:57:42;16.50;93.90
1415;DHT22;702;49.466;11.086;2023-09-19T05:00:12;16.50;93.50
1415;DHT22;702;49.466;11.086;2023-09-19T05:02:43;16.60;93.60
1415;DHT22;702;49.466;11.086;2023-09-19T05:05:10;16.60;93.50
1415;DHT22;702;49.466;11.086;2023-09-19T05:07:44;16.80;92.90
1415;DHT22;702;49.466;11.086;2023-09-19T05:10:12;16.90;92.40
1415;DHT22;702;49.466;11.086;2023-09-19T05:12:40;16.90;92.20
1415;DHT22;702;49.466;11.086;2023-09-19T05:15:10;17.00;92.80
1415;DHT22;702;49.466;11.086;2023-09-19T05:17:38;17.10;92.00
1415;DHT22;702;49.466;11.086;2023-09-19T05:20:08;17.10;92.10
1415;DHT22;702;49.466;11.086;2023-09-19T05:22:39;17.10;92.00
1415;DHT22;702;49.466;11.086;2023-09-19T05:25:07;17.00;91.90
1415;DHT22;702;49.466;11.086;2023-09-19T05:27:34;16.90;91.80
1415;DHT22;702;49.466;11.086;2023-09-19T05:30:02;17.00;91.90
1415;DHT22;702;49.466;11.086;2023-09-19T05:32:30;17.00;91.80
1415;DHT22;702;49.466;11.086;2023-09-19T05:34:59;17.00;91.70
1415;DHT22;702;49.466;11.086;2023-09-19T05:37:28;17.10;91.50
1415;DHT22;702;49.466;11.086;2023-09-19T05:39:56;17.10;91.40
1415;DHT22;702;49.466;11.086;2023-09-19T05:42:23;17.10;91.40
1415;DHT22;702;49.466;11.086;2023-09-19T05:44:51;17.10;91.50
1415;DHT22;702;49.466;11.086;2023-09-19T05:47:18;17.20;91.40
1415;DHT22;702;49.466;11.086;2023-09-19T05:49:48;17.20;91.30
1415;DHT22;702;49.466;11.086;2023-09-19T05:52:24;17.20;91.30
1415;DHT22;702;49.466;11.086;2023-09-19T05:54:53;17.20;91.30
1415;DHT22;702;49.466;11.086;2023-09-19T05:57:22;17.20;91.30
1415;DHT22;702;49.466;11.086;2023-09-19T05:59:51;17.30;91.30
1415;DHT22;702;49.466;11.086;2023-09-19T06:02:21;17.30;91.20
1415;DHT22;702;49.466;11.086;2023-09-19T06:04:49;17.30;91.10
1415;DHT22;702;49.466;11.086;2023-09-19T06:07:18;17.30;91.20
1415;DHT22;702;49.466;11.086;2023-09-19T06:09:47;17.30;91.30
1415;DHT22;702;49.466;11.086;2023-09-19T06:12:17;17.30;91.10
1415;DHT22;702;49.466;11.086;2023-09-19T06:14:44;17.40;91.30
1415;DHT22;702;49.466;11.086;2023-09-19T06:17:12;17.50;91.10
1415;DHT22;702;49.466;11.086;2023-09-19T06:19:40;17.50;91.10
1415;DHT22;702;49.466;11.086;2023-09-19T06:22:15;17.60;90.90
1415;DHT22;702;49.466;11.086;2023-09-19T06:24:44;17.70;90.70
1415;DHT22;702;49.466;11.086;2023-09-19T06:27:13;17.70;90.60
1415;DHT22;702;49.466;11.086;2023-09-19T06:29:42;17.70;90.60
1415;DHT22;702;49.466;11.086;2023-09-19T06:32:09;17.80;90.50
1415;DHT22;702;49.466;11.086;2023-09-19T06:34:37;17.80;90.40
1415;DHT22;702;49.466;11.086;2023-09-19T06:37:08;17.90;90.40
1415;DHT22;702;49.466;11.086;2023-09-19T06:39:38;17.90;90.30
1415;DHT22;702;49.466;11.086;2023-09-19T06:42:05;18.00;90.10
1415;DHT22;702;49.466;11.086;2023-09-19T06:44:35;18.20;90.00
1415;DHT22;702;49.466;11.086;2023-09-19T06:47:03;18.30;89.50
1415;DHT22;702;49.466;11.086;2023-09-19T06:49:32;18.30;89.60
1415;DHT22;702;49.466;11.086;2023-09-19T06:52:01;18.20;89.40
1415;DHT22;702;49.466;11.086;2023-09-19T06:54:29;18.10;89.20
1415;DHT22;702;49.466;11.086;2023-09-19T06:56:57;18.10;89.30
1415;DHT22;702;49.466;11.086;2023-09-19T06:59:25;18.10;89.10
1415;DHT22;702;49.466;11.086;2023-09-19T07:01:52;18.10;88.50
1415;DHT22;702;49.466;11.086;2023-09-19T07:04:22;18.10;88.30
1415;DHT22;702;49.466;11.086;2023-09-19T07:06:50;18.30;87.70
1415;DHT22;702;49.466;11.086;2023-09-19T07:09:18;18.40;86.50
1415;DHT22;702;49.466;11.086;2023-09-19T07:11:47;18.30;84.40
1415;DHT22;702;49.466;11.086;2023-09-19T07:14:17;18.30;84.30
1415;DHT22;702;49.466;11.086;2023-09-19T07:16:44;18.40;83.40
1415;DHT22;702;49.466;11.086;2023-09-19T07:19:15;18.60;82.50
1415;DHT22;702;49.466;11.086;2023-09-19T07:21:44;18.50;82.60
1415;DHT22;702;49.466;11.086;2023-09-19T07:24:14;18.50;81.80
1415;DHT22;702;49.466;11.086;2023-09-19T07:26:41;18.70;80.60
1415;DHT22;702;49.466;11.086;2023-09-19T07:29:09;18.90;80.40
1415;DHT22;702;49.466;11.086;2023-09-19T07:31:36;19.00;80.50
1415;DHT22;702;49.466;11.086;2023-09-19T07:34:03;19.20;79.40
1415;DHT22;702;49.466;11.086;2023-09-19T07:36:32;19.00;78.80
1415;DHT22;702;49.466;11.086;2023-09-19T07:39:06;19.10;78.50
1415;DHT22;702;49.466;11.086;2023-09-19T07:41:39;18.90;77.00
1415;DHT22;702;49.466;11.086;2023-09-19T07:44:07;18.90;77.70
1415;DHT22;702;49.466;11.086;2023-09-19T07:46:35;18.90;78.00
1415;DHT22;702;49.466;11.086;2023-09-19T07:49:04;18.80;78.40
1415;DHT22;702;49.466;11.086;2023-09-19T07:51:32;18.80;78.70
1415;DHT22;702;49.466;11.086;2023-09-19T07:54:00;18.90;78.50
1415;DHT22;702;49.466;11.086;2023-09-19T07:56:29;18.90;77.90
1415;DHT22;702;49.466;11.086;2023-09-19T07:58:57;18.90;75.20
1415;DHT22;702;49.466;11.086;2023-09-19T08:01:25;18.90;76.80
1415;DHT22;702;49.466;11.086;2023-09-19T08:03:53;19.00;76.50
1415;DHT22;702;49.466;11.086;2023-09-19T08:06:20;19.20;74.10
1415;DHT22;702;49.466;11.086;2023-09-19T08:08:48;19.40;74.20
1415;DHT22;702;49.466;11.086;2023-09-19T08:11:19;19.60;73.40
1415;DHT22;702;49.466;11.086;2023-09-19T08:13:49;19.60;73.10
1415;DHT22;702;49.466;11.086;2023-09-19T08:16:16;19.70;73.60
1415;DHT22;702;49.466;11.086;2023-09-19T08:18:47;19.90;73.30
1415;DHT22;702;49.466;11.086;2023-09-19T08:21:14;19.60;73.70
1415;DHT22;702;49.466;11.086;2023-09-19T08:23:41;19.40;73.80
1415;DHT22;702;49.466;11.086;2023-09-19T08:26:09;19.50;74.40
1415;DHT22;702;49.466;11.086;2023-09-19T08:28:37;19.40;74.50
1415;DHT22;702;49.466;11.086;2023-09-19T08:31:08;19.40;74.60
1415;DHT22;702;49.466;11.086;2023-09-19T08:33:37;19.30;75.80
1415;DHT22;702;49.466;11.086;2023-09-19T08:36:05;19.40;76.10
1415;DHT22;702;49.466;11.086;2023-09-19T08:38:35;19.60;75.80
1415;DHT22;702;49.466;11.086;2023-09-19T08:41:06;19.90;75.70
1415;DHT22;702;49.466;11.086;2023-09-19T08:43:34;19.90;75.40
1415;DHT22;702;49.466;11.086;2023-09-19T08:46:09;19.90;76.00
1415;DHT22;702;49.466;11.086;2023-09-19T08:48:43;20.10;75.40
1415;DHT22;702;49.466;11.086;2023-09-19T08:51:21;20.20;74.90
1415;DHT22;702;49.466;11.086;2023-09-19T08:54:02;20.40;74.50
1415;DHT22;702;49.466;11.086;2023-09-19T08:56:32;20.50;74.10
1415;DHT22;702;49.466;11.086;2023-09-19T08:59:02;20.40;73.80
1415;DHT22;702;49.466;11.086;2023-09-19T09:01:33;20.40;73.10
1415;DHT22;702;49.466;11.086;2023-09-19T09:04:02;20.60;73.00
1415;DHT22;702;49.466;11.086;2023-09-19T09:06:32;20.70;72.30
1415;DHT22;702;49.466;11.086;2023-09-19T09:09:00;20.90;72.20
1415;DHT22;702;49.466;11.086;2023-09-19T09:11:33;21.00;72.40
1415;DHT22;702;49.466;11.086;2023-09-19T09:14:00;21.10;71.40
1415;DHT22;702;49.466;11.086;2023-09-19T09:16:29;21.20;70.50
1415;DHT22;702;49.466;11.086;2023-09-19T09:18:58;20.70;70.80
1415;DHT22;702;49.466;11.086;2023-09-19T09:21:26;20.50;72.10
1415;DHT22;702;49.466;11.086;2023-09-19T09:23:54;20.50;71.60
1415;DHT22;702;49.466;11.086;2023-09-19T09:26:42;20.20;72.20
1415;DHT22;702;49.466;11.086;2023-09-19T09:29:11;20.00;72.30
1415;DHT22;702;49.466;11.086;2023-09-19T09:31:39;20.10;72.70
1415;DHT22;702;49.466;11.086;2023-09-19T09:34:11;20.20;72.90
1415;DHT22;702;49.466;11.086;2023-09-19T09:36:41;20.30;70.60
1415;DHT22;702;49.466;11.086;2023-09-19T09:39:08;20.10;69.80
1415;DHT22;702;49.466;11.086;2023-09-19T09:41:44;19.80;69.50
1415;DHT22;702;49.466;11.086;2023-09-19T09:44:16;19.60;69.40
1415;DHT22;702;49.466;11.086;2023-09-19T09:46:46;19.70;69.60
1415;DHT22;702;49.466;11.086;2023-09-19T09:49:47;19.70;69.90
1415;DHT22;702;49.466;11.086;2023-09-19T09:52:44;19.90;70.10
1415;DHT22;702;49.466;11.086;2023-09-19T09:55:12;20.20;69.40
1415;DHT22;702;49.466;11.086;2023-09-19T09:57:39;20.30;69.50
1415;DHT22;702;49.466;11.086;2023-09-19T10:00:10;20.50;69.30
1415;DHT22;702;49.466;11.086;2023-09-19T10:02:45;20.60;68.90
1415;DHT22;702;49.466;11.086;2023-09-19T10:05:16;20.50;69.00
1415;DHT22;702;49.466;11.086;2023-09-19T10:07:54;20.40;69.70
1415;DHT22;702;49.466;11.086;2023-09-19T10:10:33;20.50;68.90
1415;DHT22;702;49.466;11.086;2023-09-19T10:13:12;20.30;69.50
1415;DHT22;702;49.466;11.086;2023-09-19T10:15:42;20.40;69.00
1415;DHT22;702;49.466;11.086;2023-09-19T10:18:16;20.50;69.40
1415;DHT22;702;49.466;11.086;2023-09-19T10:20:48;20.70;68.70
1415;DHT22;702;49.466;11.086;2023-09-19T10:23:18;20.60;68.70
1415;DHT22;702;49.466;11.086;2023-09-19T10:25:49;20.60;68.60
1415;DHT22;702;49.466;11.086;2023-09-19T10:28:18;20.50;68.60
1415;DHT22;702;49.466;11.086;2023-09-19T10:30:48;20.60;69.20
1415;DHT22;702;49.466;11.086;2023-09-19T10:33:19;21.00;68.90
1415;DHT22;702;49.466;11.086;2023-09-19T10:35:50;21.30;68.40
1415;DHT22;702;49.466;11.086;2023-09-19T10:38:19;21.00;67.80
1415;DHT22;702;49.466;11.086;2023-09-19T10:40:50;20.80;68.30
1415;DHT22;702;49.466;11.086;2023-09-19T10:43:19;20.60;68.10
1415;DHT22;702;49.466;11.086;2023-09-19T10:45:48;20.50;68.50
1415;DHT22;702;49.466;11.086;2023-09-19T10:48:19;20.50;68.70
1415;DHT22;702;49.466;11.086;2023-09-19T10:50:58;20.50;68.40
1415;DHT22;702;49.466;11.086;2023-09-19T10:53:41;20.30;69.00
1415;DHT22;702;49.466;11.086;2023-09-19T10:56:17;20.40;68.90
1415;DHT22;702;49.466;11.086;2023-09-19T10:58:48;20.60;68.70
1415;DHT22;702;49.466;11.086;2023-09-19T11:01:16;20.90;68.40
1415;DHT22;702;49.466;11.086;2023-09-19T11:03:44;21.00;68.20
1415;DHT22;702;49.466;11.086;2023-09-19T11:06:18;21.00;68.00
1415;DHT22;702;49.466;11.086;2023-09-19T11:08:56;21.00;65.70
1415;DHT22;702;49.466;11.086;2023-09-19T11:11:44;21.10;65.60
1415;DHT22;702;49.466;11.086;2023-09-19T11:14:38;21.40;65.60
1415;DHT22;702;49.466;11.086;2023-09-19T11:17:34;21.90;64.00
1415;DHT22;702;49.466;11.086;2023-09-19T11:20:22;22.10;63.10
1415;DHT22;702;49.466;11.086;2023-09-19T11:23:19;22.10;65.60
1415;DHT22;702;49.466;11.086;2023-09-19T11:25:51;21.70;67.00
1415;DHT22;702;49.466;11.086;2023-09-19T11:28:36;21.40;66.70
1415;DHT22;702;49.466;11.086;2023-09-19T11:34:42;21.40;67.50
1415;DHT22;702;49.466;11.086;2023-09-19T11:41:36;21.40;66.80
1415;DHT22;702;49.466;11.086;2023-09-19T11:44:32;21.30;66.40
1415;DHT22;702;49.466;11.086;2023-09-19T11:47:04;20.70;66.20
1415;DHT22;702;49.466;11.086;2023-09-19T11:49:32;20.40;67.10
1415;DHT22;702;49.466;11.086;2023-09-19T11:52:02;20.40;67.20
1415;DHT22;702;49.466;11.086;2023-09-19T11:54:35;20.30;66.90
1415;DHT22;702;49.466;11.086;2023-09-19T11:57:08;20.20;67.10
1415;DHT22;702;49.466;11.086;2023-09-19T11:59:39;20.20;66.60
1415;DHT22;702;49.466;11.086;2023-09-19T12:02:07;20.00;66.80
1415;DHT22;702;49.466;11.086;2023-09-19T12:04:38;20.00;66.20
1415;DHT22;702;49.466;11.086;2023-09-19T12:07:09;20.20;66.90
1415;DHT22;702;49.466;11.086;2023-09-19T12:09:41;20.20;65.90
1415;DHT22;702;49.466;11.086;2023-09-19T12:12:19;20.40;66.20
1415;DHT22;702;49.466;11.086;2023-09-19T12:14:48;20.50;65.40
1415;DHT22;702;49.466;11.086;2023-09-19T12:17:17;20.60;63.30
1415;DHT22;702;49.466;11.086;2023-09-19T12:19:50;20.60;63.90
1415;DHT22;702;49.466;11.086;2023-09-19T12:22:19;20.70;63.60
1415;DHT22;702;49.466;11.086;2023-09-19T12:24:47;20.80;62.50
1415;DHT22;702;49.466;11.086;2023-09-19T12:27:16;21.00;62.50
1415;DHT22;702;49.466;11.086;2023-09-19T12:29:48;21.00;62.10
1415;DHT22;702;49.466;11.086;2023-09-19T12:32:33;21.40;61.90
1415;DHT22;702;49.466;11.086;2023-09-19T12:35:02;21.70;61.90
1415;DHT22;702;49.466;11.086;2023-09-19T12:37:36;22.00;61.50
1415;DHT22;702;49.466;11.086;2023-09-19T12:40:05;21.80;61.10
1415;DHT22;702;49.466;11.086;2023-09-19T12:42:48;21.60;60.90
1415;DHT22;702;49.466;11.086;2023-09-19T12:45:16;21.30;60.50
1415;DHT22;702;49.466;11.086;2023-09-19T12:51:03;21.40;60.90
1415;DHT22;702;49.466;11.086;2023-09-19T12:53:32;21.70;61.00
1415;DHT22;702;49.466;11.086;2023-09-19T12:56:02;21.60;60.40
1415;DHT22;702;49.466;11.086;2023-09-19T12:58:32;21.50;60.70
1415;DHT22;702;49.466;11.086;2023-09-19T13:01:00;21.50;60.60
1415;DHT22;702;49.466;11.086;2023-09-19T13:03:30;21.30;60.60
1415;DHT22;702;49.466;11.086;2023-09-19T13:06:01;21.30;61.10
1415;DHT22;702;49.466;11.086;2023-09-19T13:08:31;21.30;60.90
1415;DHT22;702;49.466;11.086;2023-09-19T13:11:04;21.50;61.20
1415;DHT22;702;49.466;11.086;2023-09-19T13:13:41;21.60;61.10
1415;DHT22;702;49.466;11.086;2023-09-19T13:16:11;21.80;61.30
1415;DHT22;702;49.466;11.086;2023-09-19T13:18:44;21.60;60.50
1415;DHT22;702;49.466;11.086;2023-09-19T13:21:13;21.70;61.30
1415;DHT22;702;49.466;11.086;2023-09-19T13:23:51;22.00;61.10
1415;DHT22;702;49.466;11.086;2023-09-19T13:26:18;22.00;61.10
1415;DHT22;702;49.466;11.086;2023-09-19T13:28:48;22.10;61.00
1415;DHT22;702;49.466;11.086;2023-09-19T13:31:15;22.00;60.70
1415;DHT22;702;49.466;11.086;2023-09-19T13:33:45;21.70;61.40
1415;DHT22;702;49.466;11.086;2023-09-19T13:36:12;21.50;61.00
1415;DHT22;702;49.466;11.086;2023-09-19T13:38:40;21.50;61.10
1415;DHT22;702;49.466;11.086;2023-09-19T13:41:10;21.50;60.30
1415;DHT22;702;49.466;11.086;2023-09-19T13:43:37;21.60;60.70
1415;DHT22;702;49.466;11.086;2023-09-19T13:46:07;21.60;60.90
1415;DHT22;702;49.466;11.086;2023-09-19T13:48:38;21.80;60.90
1415;DHT22;702;49.466;11.086;2023-09-19T13:51:07;21.80;61.00
1415;DHT22;702;49.466;11.086;2023-09-19T13:53:34;21.80;60.70
1415;DHT22;702;49.466;11.086;2023-09-19T13:56:01;21.80;60.50
1415;DHT22;702;49.466;11.086;2023-09-19T13:58:29;21.80;60.80
1415;DHT22;702;49.466;11.086;2023-09-19T14:00:57;21.80;61.10
1415;DHT22;702;49.466;11.086;2023-09-19T14:03:28;21.90;61.10
1415;DHT22;702;49.466;11.086;2023-09-19T14:05:55;21.90;60.40
1415;DHT22;702;49.466;11.086;2023-09-19T14:08:23;22.10;60.00
1415;DHT22;702;49.466;11.086;2023-09-19T14:10:51;22.20;60.30
1415;DHT22;702;49.466;11.086;2023-09-19T14:13:19;22.10;59.50
1415;DHT22;702;49.466;11.086;2023-09-19T14:15:46;22.10;59.50
1415;DHT22;702;49.466;11.086;2023-09-19T14:18:13;22.10;59.40
1415;DHT22;702;49.466;11.086;2023-09-19T14:20:41;22.30;59.60
1415;DHT22;702;49.466;11.086;2023-09-19T14:23:10;22.30;59.10
1415;DHT22;702;49.466;11.086;2023-09-19T14:25:37;22.10;59.40
1415;DHT22;702;49.466;11.086;2023-09-19T14:28:06;22.20;59.50
1415;DHT22;702;49.466;11.086;2023-09-19T14:30:34;22.20;59.60
1415;DHT22;702;49.466;11.086;2023-09-19T14:33:04;22.10;59.30
1415;DHT22;702;49.466;11.086;2023-09-19T14:35:31;22.10;59.50
1415;DHT22;702;49.466;11.086;2023-09-19T14:38:01;22.10;58.90
1415;DHT22;702;49.466;11.086;2023-09-19T14:40:29;22.10;58.90
1415;DHT22;702;49.466;11.086;2023-09-19T14:42:57;22.10;59.00
1415;DHT22;702;49.466;11.086;2023-09-19T14:45:24;22.10;59.10
1415;DHT22;702;49.466;11.086;2023-09-19T14:47:53;22.20;58.90
1415;DHT22;702;49.466;11.086;2023-09-19T14:50:21;22.10;59.20
1415;DHT22;702;49.466;11.086;2023-09-19T14:52:50;22.10;59.20
1415;DHT22;702;49.466;11.086;2023-09-19T14:55:20;22.10;58.90
1415;DHT22;702;49.466;11.086;2023-09-19T14:57:49;22.10;59.00
1415;DHT22;702;49.466;11.086;2023-09-19T15:00:18;22.20;59.30
1415;DHT22;702;49.466;11.086;2023-09-19T15:02:48;22.10;58.60
1415;DHT22;702;49.466;11.086;2023-09-19T15:05:15;21.90;58.30
1415;DHT22;702;49.466;11.086;2023-09-19T15:07:43;21.90;58.50
1415;DHT22;702;49.466;11.086;2023-09-19T15:10:10;21.90;58.80
1415;DHT22;702;49.466;11.086;2023-09-19T15:12:42;21.80;58.90
1415;DHT22;702;49.466;11.086;2023-09-19T15:15:10;21.70;58.80
1415;DHT22;702;49.466;11.086;2023-09-19T15:17:38;21.70;59.10
1415;DHT22;702;49.466;11.086;2023-09-19T15:20:07;21.80;58.80
1415;DHT22;702;49.466;11.086;2023-09-19T15:22:39;21.70;59.00
1415;DHT22;702;49.466;11.086;2023-09-19T15:25:08;21.70;59.30
1415;DHT22;702;49.466;11.086;2023-09-19T15:27:35;21.90;59.00
1415;DHT22;702;49.466;11.086;2023-09-19T15:30:06;21.80;58.90
1415;DHT22;702;49.466;11.086;2023-09-19T15:32:35;21.80;58.40
1415;DHT22;702;49.466;11.086;2023-09-19T15:35:02;21.70;57.90
1415;DHT22;702;49.466;11.086;2023-09-19T15:37:30;21.70;58.00
1415;DHT22;702;49.466;11.086;2023-09-19T15:39:58;21.60;58.10
1415;DHT22;702;49.466;11.086;2023-09-19T15:42:25;21.60;58.20
1415;DHT22;702;49.466;11.086;2023-09-19T15:44:53;21.60;58.10
1415;DHT22;702;49.466;11.086;2023-09-19T15:47:22;21.60;58.30
1415;DHT22;702;49.466;11.086;2023-09-19T15:49:50;21.50;58.10
1415;DHT22;702;49.466;11.086;2023-09-19T15:52:17;21.40;57.60
1415;DHT22;702;49.466;11.086;2023-09-19T15:54:44;21.30;57.60
1415;DHT22;702;49.466;11.086;2023-09-19T15:57:12;21.20;57.90
1415;DHT22;702;49.466;11.086;2023-09-19T15:59:40;21.20;58.10
1415;DHT22;702;49.466;11.086;2023-09-19T16:02:09;21.20;57.90
1415;DHT22;702;49.466;11.086;2023-09-19T16:04:39;21.20;57.80
1415;DHT22;702;49.466;11.086;2023-09-19T16:07:10;21.10;57.80
1415;DHT22;702;49.466;11.086;2023-09-19T16:09:38;21.10;57.70
1415;DHT22;702;49.466;11.086;2023-09-19T16:12:07;21.10;57.90
1415;DHT22;702;49.466;11.086;2023-09-19T16:14:38;21.10;57.90
1415;DHT22;702;49.466;11.086;2023-09-19T16:17:06;21.00;58.00
1415;DHT22;702;49.466;11.086;2023-09-19T16:19:35;20.90;58.20
1415;DHT22;702;49.466;11.086;2023-09-19T16:22:03;20.90;58.70
1415;DHT22;702;49.466;11.086;2023-09-19T16:24:31;20.90;58.60
1415;DHT22;702;49.466;11.086;2023-09-19T16:27:00;20.80;58.60
1415;DHT22;702;49.466;11.086;2023-09-19T16:29:28;20.70;58.60
1415;DHT22;702;49.466;11.086;2023-09-19T16:31:56;20.70;58.80
1415;DHT22;702;49.466;11.086;2023-09-19T16:34:24;20.60;58.70